createdAt,value
2023-06-08T00:00:31.737Z,98.57
2023-06-08T00:01:36.541Z,98.62
2023-06-08T00:02:39.097Z,98.52
2023-06-08T00:03:45.051Z,98.53
2023-06-08T00:04:47.571Z,98.78
2023-06-08T00:05:51.350Z,98.92
2023-06-08T00:06:53.960Z,98.98
2023-06-08T00:07:57.871Z,98.84
2023-06-08T00:09:05.356Z,98.87
2023-06-08T00:10:10.534Z,99.06
2023-06-08T00:11:13.585Z,99.05
2023-06-08T00:12:16.239Z,98.79
2023-06-08T00:13:18.731Z,98.68
2023-06-08T00:14:20.989Z,98.74
2023-06-08T00:15:23.160Z,98.75
2023-06-08T00:16:25.521Z,98.79
2023-06-08T00:17:28.723Z,98.88
2023-06-08T00:18:37.611Z,98.66
2023-06-08T00:19:40.271Z,98.80
2023-06-08T00:20:42.665Z,98.65
2023-06-08T00:21:45.842Z,98.78
2023-06-08T00:22:49.017Z,98.88
2023-06-08T00:23:51.942Z,98.52
2023-06-08T00:24:54.372Z,98.44
2023-06-08T00:25:56.771Z,98.88
2023-06-08T00:26:58.887Z,99.00
2023-06-08T00:28:01.028Z,98.68
2023-06-08T00:29:03.757Z,99.09
2023-06-08T00:30:06.772Z,98.97
2023-06-08T00:31:09.526Z,98.80
2023-06-08T00:32:12.190Z,99.15
2023-06-08T00:33:14.416Z,98.88
2023-06-08T00:34:16.858Z,99.40
2023-06-08T00:35:19.030Z,99.07
2023-06-08T00:36:21.441Z,98.93
2023-06-08T00:37:23.586Z,99.23
2023-06-08T00:38:25.773Z,99.20
2023-06-08T00:39:27.881Z,99.15
2023-06-08T00:40:30.011Z,99.20
2023-06-08T00:41:32.211Z,99.00
2023-06-08T00:42:34.317Z,99.15
2023-06-08T00:43:36.532Z,99.42
2023-06-08T00:44:38.652Z,99.32
2023-06-08T00:45:40.936Z,99.15
2023-06-08T00:46:43.297Z,99.37
2023-06-08T00:47:45.957Z,99.22
2023-06-08T00:48:48.230Z,99.23
2023-06-08T00:49:50.828Z,99.42
2023-06-08T00:50:53.557Z,99.40
2023-06-08T00:51:55.713Z,99.33
2023-06-08T00:52:58.031Z,99.28
2023-06-08T00:54:01.951Z,99.41
2023-06-08T00:55:04.285Z,99.28
2023-06-08T00:56:07.877Z,99.16
2023-06-08T00:57:10.400Z,99.14
2023-06-08T00:58:14.633Z,98.95
2023-06-08T00:59:16.935Z,99.16
2023-06-08T01:00:19.246Z,99.09
2023-06-08T01:01:21.421Z,99.19
2023-06-08T01:02:24.854Z,98.97
2023-06-08T01:03:36.484Z,99.21
2023-06-08T01:04:40.540Z,99.06
2023-06-08T01:05:46.406Z,98.94
2023-06-08T01:06:50.248Z,99.02
2023-06-08T01:08:18.980Z,99.02
2023-06-08T01:09:31.235Z,99.02
2023-06-08T01:11:12.955Z,98.95
2023-06-08T01:12:15.017Z,99.01
2023-06-08T01:13:58.336Z,98.88
2023-06-08T01:15:32.869Z,98.88
2023-06-08T01:16:39.129Z,98.77
2023-06-08T01:17:44.219Z,98.52
2023-06-08T01:18:48.639Z,98.80
2023-06-08T01:20:25.797Z,98.99
2023-06-08T01:21:40.721Z,99.25
2023-06-08T01:23:13.497Z,98.80
2023-06-08T01:24:21.430Z,98.99
2023-06-08T01:25:29.732Z,98.79
2023-06-08T01:26:32.589Z,98.79
2023-06-08T01:27:38.352Z,98.76
2023-06-08T01:28:41.189Z,98.72
2023-06-08T01:29:45.722Z,98.72
2023-06-08T01:30:50.230Z,98.68
2023-06-08T01:31:52.505Z,98.84
2023-06-08T01:32:54.607Z,99.14
2023-06-08T01:33:56.813Z,98.98
2023-06-08T01:34:59.150Z,99.16
2023-06-08T01:36:07.892Z,98.86
2023-06-08T01:37:29.212Z,99.14
2023-06-08T01:39:19.552Z,98.87
2023-06-08T01:40:33.704Z,98.65
2023-06-08T01:41:45.015Z,98.58
2023-06-08T01:43:07.116Z,98.93
2023-06-08T01:44:12.207Z,98.95
2023-06-08T01:45:22.765Z,98.59
2023-06-08T01:46:25.950Z,98.66
2023-06-08T01:47:43.062Z,98.59
2023-06-08T01:48:47.653Z,98.79
2023-06-08T01:49:49.665Z,98.68
2023-06-08T01:50:52.608Z,98.81
2023-06-08T01:51:55.560Z,98.69
2023-06-08T01:52:59.526Z,98.54
2023-06-08T01:54:06.310Z,98.43
2023-06-08T01:55:18.253Z,98.42
2023-06-08T01:56:20.724Z,98.43
2023-06-08T01:57:22.884Z,98.26
2023-06-08T01:58:25.392Z,98.26
2023-06-08T01:59:27.518Z,98.07
2023-06-08T02:00:30.711Z,98.05
2023-06-08T02:01:32.902Z,97.92
2023-06-08T02:02:35.217Z,98.05
2023-06-08T02:03:37.494Z,98.56
2023-06-08T02:04:39.685Z,98.55
2023-06-08T02:05:41.825Z,98.49
2023-06-08T02:06:43.979Z,98.33
2023-06-08T02:07:46.392Z,98.09
2023-06-08T02:08:48.965Z,98.18
2023-06-08T02:09:51.074Z,98.22
2023-06-08T02:10:53.184Z,98.07
2023-06-08T02:12:08.448Z,98.37
2023-06-08T02:13:10.638Z,98.35
2023-06-08T02:14:12.792Z,98.02
2023-06-08T02:15:15.056Z,97.94
2023-06-08T02:16:20.277Z,97.70
2023-06-08T02:17:27.192Z,97.58
2023-06-08T02:18:29.347Z,97.63
2023-06-08T02:19:34.746Z,97.58
2023-06-08T02:20:37.258Z,97.91
2023-06-08T02:21:40.310Z,97.58
2023-06-08T02:22:42.480Z,97.64
2023-06-08T02:23:44.636Z,97.74
2023-06-08T02:24:46.810Z,97.79
2023-06-08T02:25:51.180Z,97.83
2023-06-08T02:26:53.806Z,98.20
2023-06-08T02:27:56.492Z,98.21
2023-06-08T02:28:58.628Z,98.45
2023-06-08T02:30:00.797Z,98.26
2023-06-08T02:31:04.682Z,98.25
2023-06-08T02:32:07.694Z,97.98
2023-06-08T02:33:09.903Z,98.19
2023-06-08T02:34:12.146Z,98.35
2023-06-08T02:35:14.391Z,98.01
2023-06-08T02:36:18.604Z,97.95
2023-06-08T02:37:21.111Z,97.81
2023-06-08T02:38:23.324Z,98.03
2023-06-08T02:39:25.459Z,97.93
2023-06-08T02:40:27.615Z,98.30
2023-06-08T02:41:29.761Z,97.64
2023-06-08T02:42:31.868Z,97.13
2023-06-08T02:43:34.024Z,97.01
2023-06-08T02:44:36.447Z,96.82
2023-06-08T02:45:41.358Z,96.68
2023-06-08T02:46:43.600Z,97.16
2023-06-08T02:47:45.748Z,97.24
2023-06-08T02:48:47.919Z,97.57
2023-06-08T02:49:50.060Z,97.62
2023-06-08T02:50:52.164Z,97.58
2023-06-08T02:51:54.294Z,97.68
2023-06-08T02:52:56.433Z,98.20
2023-06-08T02:53:58.572Z,98.26
2023-06-08T02:55:00.868Z,98.17
2023-06-08T02:56:03.395Z,98.09
2023-06-08T02:57:06.568Z,97.97
2023-06-08T02:58:10.596Z,98.04
2023-06-08T02:59:12.746Z,98.17
2023-06-08T03:00:15.303Z,98.14
2023-06-08T03:01:21.763Z,98.23
2023-06-08T03:02:24.472Z,98.17
2023-06-08T03:03:30.670Z,98.24
2023-06-08T03:04:33.031Z,98.08
2023-06-08T03:05:35.561Z,97.95
2023-06-08T03:06:37.976Z,97.73
2023-06-08T03:07:41.701Z,97.95
2023-06-08T03:08:43.962Z,98.04
2023-06-08T03:09:46.262Z,97.83
2023-06-08T03:10:48.383Z,97.67
2023-06-08T03:11:50.904Z,97.36
2023-06-08T03:12:53.045Z,97.12
2023-06-08T03:13:55.196Z,97.05
2023-06-08T03:14:57.398Z,96.75
2023-06-08T03:15:59.847Z,96.76
2023-06-08T03:17:04.031Z,96.78
2023-06-08T03:18:06.490Z,96.83
2023-06-08T03:19:08.790Z,97.24
2023-06-08T03:20:11.514Z,97.46
2023-06-08T03:21:13.884Z,97.44
2023-06-08T03:22:16.574Z,97.40
2023-06-08T03:23:21.166Z,97.26
2023-06-08T03:24:23.254Z,97.48
2023-06-08T03:25:25.315Z,97.26
2023-06-08T03:26:27.582Z,97.34
2023-06-08T03:27:29.824Z,97.35
2023-06-08T03:28:31.929Z,97.23
2023-06-08T03:29:35.088Z,97.43
2023-06-08T03:30:37.239Z,97.29
2023-06-08T03:31:39.466Z,97.54
2023-06-08T03:32:43.365Z,97.07
2023-06-08T03:33:45.883Z,97.27
2023-06-08T03:34:49.645Z,97.25
2023-06-08T03:35:51.808Z,96.99
2023-06-08T03:36:55.047Z,96.74
2023-06-08T03:37:57.199Z,96.95
2023-06-08T03:38:59.388Z,96.92
2023-06-08T03:40:01.629Z,97.10
2023-06-08T03:41:03.776Z,96.81
2023-06-08T03:42:06.750Z,96.98
2023-06-08T03:43:08.900Z,96.50
2023-06-08T03:44:11.174Z,96.42
2023-06-08T03:45:13.335Z,96.56
2023-06-08T03:46:15.658Z,96.26
2023-06-08T03:47:19.377Z,96.18
2023-06-08T03:48:21.594Z,96.30
2023-06-08T03:49:26.141Z,96.26
2023-06-08T03:50:28.344Z,96.35
2023-06-08T03:51:31.453Z,96.07
2023-06-08T03:52:33.682Z,96.19
2023-06-08T03:53:35.824Z,96.18
2023-06-08T03:54:37.979Z,96.21
2023-06-08T03:55:40.170Z,96.00
2023-06-08T03:56:42.567Z,95.75
2023-06-08T03:57:44.932Z,95.74
2023-06-08T03:58:47.941Z,95.28
2023-06-08T03:59:51.302Z,95.49
2023-06-08T04:00:54.690Z,95.28
2023-06-08T04:01:56.822Z,95.28
2023-06-08T04:02:59.126Z,95.19
2023-06-08T04:04:01.341Z,95.10
2023-06-08T04:05:03.931Z,94.93
2023-06-08T04:06:10.124Z,94.66
2023-06-08T04:07:12.846Z,94.54
2023-06-08T04:08:14.984Z,94.47
2023-06-08T04:09:17.239Z,94.85
2023-06-08T04:10:19.504Z,94.63
2023-06-08T04:11:21.627Z,95.18
2023-06-08T04:12:23.810Z,94.85
2023-06-08T04:13:26.581Z,94.88
2023-06-08T04:14:28.746Z,95.27
2023-06-08T04:15:31.330Z,95.14
2023-06-08T04:16:33.541Z,95.52
2023-06-08T04:17:36.209Z,95.86
2023-06-08T04:18:43.001Z,95.82
2023-06-08T04:19:45.319Z,95.55
2023-06-08T04:20:47.580Z,95.67
2023-06-08T04:21:50.889Z,95.42
2023-06-08T04:22:53.080Z,94.99
2023-06-08T04:23:55.225Z,94.74
2023-06-08T04:24:57.386Z,94.38
2023-06-08T04:25:59.598Z,94.58
2023-06-08T04:27:02.055Z,94.71
2023-06-08T04:28:04.951Z,94.11
2023-06-08T04:29:07.225Z,93.73
2023-06-08T04:30:09.847Z,93.83
2023-06-08T04:31:11.996Z,92.84
2023-06-08T04:32:14.302Z,92.70
2023-06-08T04:33:17.505Z,92.75
2023-06-08T04:34:19.666Z,93.20
2023-06-08T04:35:22.559Z,92.58
2023-06-08T04:36:24.763Z,92.73
2023-06-08T04:37:27.662Z,92.88
2023-06-08T04:38:29.794Z,93.63
2023-06-08T04:39:33.043Z,93.88
2023-06-08T04:40:35.878Z,92.73
2023-06-08T04:41:38.083Z,92.51
2023-06-08T04:42:42.031Z,91.95
2023-06-08T04:43:45.529Z,91.76
2023-06-08T04:44:47.751Z,91.43
2023-06-08T04:46:01.989Z,91.91
2023-06-08T04:47:08.882Z,92.22
2023-06-08T04:48:12.311Z,92.27
2023-06-08T04:49:16.162Z,92.13
2023-06-08T04:50:18.462Z,92.25
2023-06-08T04:51:24.608Z,92.26
2023-06-08T04:52:27.379Z,91.99
2023-06-08T04:53:31.705Z,91.96
2023-06-08T04:54:34.830Z,92.19
2023-06-08T04:55:38.300Z,92.38
2023-06-08T04:56:42.489Z,92.52
2023-06-08T04:57:44.928Z,91.73
2023-06-08T04:58:47.109Z,90.86
2023-06-08T04:59:49.653Z,90.69
2023-06-08T05:00:52.044Z,91.02
2023-06-08T05:01:55.020Z,91.89
2023-06-08T05:02:57.456Z,92.62
2023-06-08T05:03:59.750Z,93.53
2023-06-08T05:05:01.960Z,92.89
2023-06-08T05:06:04.156Z,91.94
2023-06-08T05:07:06.914Z,91.69
2023-06-08T05:08:09.097Z,91.59
2023-06-08T05:09:13.538Z,91.51
2023-06-08T05:10:15.750Z,90.81
2023-06-08T05:11:17.900Z,90.46
2023-06-08T05:12:20.003Z,90.38
2023-06-08T05:13:22.138Z,89.66
2023-06-08T05:14:24.314Z,89.75
2023-06-08T05:15:27.690Z,90.21
2023-06-08T05:16:29.929Z,90.16
2023-06-08T05:17:32.161Z,89.91
2023-06-08T05:18:34.364Z,90.37
2023-06-08T05:19:36.539Z,89.66
2023-06-08T05:20:38.708Z,90.09
2023-06-08T05:21:41.349Z,90.90
2023-06-08T05:22:43.554Z,92.42
2023-06-08T05:23:45.844Z,91.72
2023-06-08T05:24:49.346Z,90.90
2023-06-08T05:25:53.514Z,90.34
2023-06-08T05:26:55.869Z,89.65
2023-06-08T05:27:58.305Z,89.48
2023-06-08T05:29:00.584Z,89.58
2023-06-08T05:30:02.710Z,89.49
2023-06-08T05:31:04.909Z,89.40
2023-06-08T05:32:08.036Z,88.71
2023-06-08T05:33:10.179Z,88.93
2023-06-08T05:34:12.316Z,88.92
2023-06-08T05:35:14.445Z,90.05
2023-06-08T05:36:16.686Z,89.25
2023-06-08T05:37:18.860Z,89.17
2023-06-08T05:38:21.304Z,89.25
2023-06-08T05:39:23.475Z,90.00
2023-06-08T05:40:25.832Z,89.41
2023-06-08T05:41:27.969Z,88.01
2023-06-08T05:42:30.083Z,88.30
2023-06-08T05:43:32.211Z,88.62
2023-06-08T05:44:34.414Z,88.54
2023-06-08T05:45:36.546Z,90.04
2023-06-08T05:46:38.853Z,90.65
2023-06-08T05:47:41.196Z,90.59
2023-06-08T05:48:44.268Z,89.41
2023-06-08T05:49:46.689Z,88.80
2023-06-08T05:50:48.910Z,88.73
2023-06-08T05:51:51.072Z,88.84
2023-06-08T05:52:53.208Z,89.46
2023-06-08T05:53:55.582Z,89.75
2023-06-08T05:54:58.353Z,89.15
2023-06-08T05:56:00.545Z,88.02
2023-06-08T05:57:02.888Z,88.43
2023-06-08T05:58:05.059Z,88.12
2023-06-08T05:59:07.262Z,87.46
2023-06-08T06:00:13.689Z,87.42
2023-06-08T06:01:16.465Z,87.00
2023-06-08T06:02:18.721Z,87.21
2023-06-08T06:03:21.245Z,86.63
2023-06-08T06:04:35.960Z,87.05
2023-06-08T06:05:39.382Z,87.54
2023-06-08T06:06:41.846Z,87.14
2023-06-08T06:07:43.966Z,85.89
2023-06-08T06:08:46.096Z,86.98
2023-06-08T06:09:48.217Z,87.20
2023-06-08T06:10:50.559Z,86.69
2023-06-08T06:11:52.765Z,86.10
2023-06-08T06:12:54.929Z,85.44
2023-06-08T06:13:58.757Z,85.34
2023-06-08T06:15:00.926Z,84.49
2023-06-08T06:16:03.702Z,84.76
2023-06-08T06:17:08.526Z,85.40
2023-06-08T06:18:11.189Z,87.34
2023-06-08T06:19:13.420Z,88.54
2023-06-08T06:20:17.611Z,87.91
2023-06-08T06:21:19.808Z,87.64
2023-06-08T06:22:23.064Z,87.34
2023-06-08T06:23:25.325Z,87.41
2023-06-08T06:24:27.451Z,87.53
2023-06-08T06:25:29.592Z,87.87
2023-06-08T06:26:31.742Z,85.13
2023-06-08T06:27:39.490Z,84.84
2023-06-08T06:28:49.791Z,85.92
2023-06-08T06:29:52.054Z,83.77
2023-06-08T06:30:54.289Z,83.48
2023-06-08T06:31:56.569Z,83.37
2023-06-08T06:32:58.823Z,85.22
2023-06-08T06:34:01.269Z,84.99
2023-06-08T06:35:03.563Z,85.61
2023-06-08T06:36:06.973Z,85.58
2023-06-08T06:37:09.184Z,85.73
2023-06-08T06:38:11.387Z,87.09
2023-06-08T06:39:14.273Z,86.08
2023-06-08T06:40:16.404Z,86.83
2023-06-08T06:41:18.559Z,87.20
2023-06-08T06:42:21.908Z,86.85
2023-06-08T06:43:25.275Z,87.27
2023-06-08T06:44:27.567Z,87.67
2023-06-08T06:45:29.946Z,85.94
2023-06-08T06:46:32.746Z,85.77
2023-06-08T06:47:35.024Z,86.70
2023-06-08T06:48:37.183Z,86.46
2023-06-08T06:49:39.355Z,87.27
2023-06-08T06:50:41.479Z,87.30
2023-06-08T06:51:43.618Z,86.76
2023-06-08T06:52:46.138Z,86.45
2023-06-08T06:53:48.309Z,85.78
2023-06-08T06:54:50.717Z,85.96
2023-06-08T06:55:52.862Z,86.70
2023-06-08T06:56:55.015Z,86.10
2023-06-08T06:57:57.232Z,86.36
2023-06-08T06:58:59.748Z,85.53
2023-06-08T07:00:02.488Z,86.29
2023-06-08T07:01:04.953Z,86.21
2023-06-08T07:02:07.886Z,86.36
2023-06-08T07:03:10.802Z,87.06
2023-06-08T07:04:16.243Z,86.57
2023-06-08T07:05:20.680Z,86.95
2023-06-08T07:06:25.855Z,88.22
2023-06-08T07:07:29.327Z,87.92
2023-06-08T07:08:31.449Z,87.24
2023-06-08T07:09:33.658Z,87.32
2023-06-08T07:10:37.278Z,86.48
2023-06-08T07:11:39.460Z,86.42
2023-06-08T07:12:41.672Z,86.16
2023-06-08T07:13:43.808Z,87.74
2023-06-08T07:14:46.022Z,85.65
2023-06-08T07:15:48.218Z,85.26
2023-06-08T07:16:50.576Z,84.33
2023-06-08T07:17:52.752Z,85.09
2023-06-08T07:18:54.934Z,85.66
2023-06-08T07:19:58.848Z,85.51
2023-06-08T07:21:01.414Z,85.27
2023-06-08T07:22:07.567Z,84.74
2023-06-08T07:23:35.731Z,84.68
2023-06-08T07:25:27.053Z,85.18
2023-06-08T07:26:29.771Z,84.63
2023-06-08T07:27:26.166Z,85.76
2023-06-08T07:28:28.341Z,86.36
2023-06-08T07:29:30.602Z,85.45
2023-06-08T07:30:33.066Z,85.00
2023-06-08T07:31:35.592Z,84.38
2023-06-08T07:32:37.834Z,84.14
2023-06-08T07:33:39.988Z,84.17
2023-06-08T07:34:42.127Z,85.90
2023-06-08T07:35:47.242Z,86.53
2023-06-08T07:36:49.685Z,86.48
2023-06-08T07:37:55.206Z,85.84
2023-06-08T07:38:58.069Z,84.40
2023-06-08T07:40:00.422Z,84.16
2023-06-08T07:41:02.587Z,83.43
2023-06-08T07:42:05.024Z,83.17
2023-06-08T07:43:07.151Z,83.17
2023-06-08T07:44:09.286Z,83.18
2023-06-08T07:45:15.111Z,83.40
2023-06-08T07:46:17.372Z,83.15
2023-06-08T07:47:19.565Z,83.43
2023-06-08T07:48:21.747Z,83.26
2023-06-08T07:49:25.163Z,82.72
2023-06-08T07:50:27.386Z,83.08
2023-06-08T07:51:29.522Z,82.76
2023-06-08T07:52:31.704Z,81.93
2023-06-08T07:53:37.698Z,82.34
2023-06-08T07:54:39.845Z,82.27
2023-06-08T07:55:42.022Z,81.89
2023-06-08T07:56:44.366Z,82.34
2023-06-08T07:57:46.622Z,82.51
2023-06-08T07:58:49.530Z,82.97
2023-06-08T07:59:51.968Z,84.03
2023-06-08T08:00:54.106Z,85.08
2023-06-08T08:01:56.312Z,85.02
2023-06-08T08:02:58.827Z,85.11
2023-06-08T08:04:01.168Z,86.02
2023-06-08T08:05:04.091Z,87.26
2023-06-08T08:06:07.325Z,87.59
2023-06-08T08:07:09.592Z,87.09
2023-06-08T08:08:12.020Z,86.91
2023-06-08T08:09:14.259Z,86.76
2023-06-08T08:10:16.504Z,86.49
2023-06-08T08:11:18.687Z,86.10
2023-06-08T08:12:21.088Z,86.37
2023-06-08T08:13:23.311Z,86.98
2023-06-08T08:14:25.570Z,86.55
2023-06-08T08:15:27.964Z,85.99
2023-06-08T08:16:30.154Z,86.68
2023-06-08T08:17:32.356Z,86.81
2023-06-08T08:18:34.580Z,85.35
2023-06-08T08:19:41.216Z,86.26
2023-06-08T08:20:43.552Z,85.73
2023-06-08T08:21:45.741Z,85.44
2023-06-08T08:22:47.928Z,85.76
2023-06-08T08:23:50.091Z,86.33
2023-06-08T08:24:52.274Z,85.76
2023-06-08T08:25:54.458Z,85.95
2023-06-08T08:26:56.615Z,84.93
2023-06-08T08:27:58.944Z,84.28
2023-06-08T08:29:01.150Z,83.77
2023-06-08T08:30:03.638Z,82.79
2023-06-08T08:31:05.894Z,81.80
2023-06-08T08:32:08.248Z,80.62
2023-06-08T08:33:10.632Z,79.90
2023-06-08T08:34:13.231Z,79.72
2023-06-08T08:35:15.762Z,79.27
2023-06-08T08:36:18.528Z,79.17
2023-06-08T08:37:20.685Z,78.78
2023-06-08T08:38:22.817Z,78.28
2023-06-08T08:39:24.956Z,77.76
2023-06-08T08:40:27.125Z,77.55
2023-06-08T08:41:29.673Z,77.00
2023-06-08T08:42:32.168Z,76.79
2023-06-08T08:43:41.434Z,76.51
2023-06-08T08:44:45.388Z,75.48
2023-06-08T08:45:48.449Z,74.89
2023-06-08T08:46:51.123Z,74.62
2023-06-08T08:47:55.060Z,75.18
2023-06-08T08:49:03.314Z,74.14
2023-06-08T08:50:08.420Z,72.98
2023-06-08T08:51:20.561Z,72.85
2023-06-08T08:52:24.339Z,72.99
2023-06-08T08:53:31.786Z,73.00
2023-06-08T08:54:35.134Z,75.19
2023-06-08T08:55:37.907Z,73.53
2023-06-08T08:56:40.186Z,73.38
2023-06-08T08:57:42.802Z,72.25
2023-06-08T08:58:46.030Z,71.28
2023-06-08T08:59:48.260Z,71.45
2023-06-08T09:00:51.299Z,70.79
2023-06-08T09:01:53.605Z,71.08
2023-06-08T09:02:56.307Z,70.64
2023-06-08T09:03:59.277Z,71.34
2023-06-08T09:05:01.912Z,70.48
2023-06-08T09:06:04.202Z,70.22
2023-06-08T09:07:06.754Z,69.86
2023-06-08T09:08:08.947Z,68.40
2023-06-08T09:09:11.420Z,68.72
2023-06-08T09:10:27.401Z,68.07
2023-06-08T09:11:29.766Z,68.61
2023-06-08T09:12:41.984Z,68.50
2023-06-08T09:13:44.350Z,68.63
2023-06-08T09:14:59.057Z,66.86
2023-06-08T09:16:17.099Z,66.38
2023-06-08T09:17:38.532Z,66.03
2023-06-08T09:18:42.326Z,65.67
2023-06-08T09:19:54.434Z,66.02
2023-06-08T09:20:56.910Z,65.92
2023-06-08T09:21:59.111Z,66.58
2023-06-08T09:23:19.358Z,65.37
2023-06-08T09:24:23.490Z,64.69
2023-06-08T09:25:39.457Z,65.46
2023-06-08T09:26:48.878Z,63.81
2023-06-08T09:27:51.025Z,62.34
2023-06-08T09:28:54.324Z,62.98
2023-06-08T09:29:58.394Z,62.21
2023-06-08T09:31:10.094Z,63.15
2023-06-08T09:32:15.012Z,62.64
2023-06-08T09:33:24.602Z,61.23
2023-06-08T09:34:26.891Z,59.93
2023-06-08T09:35:29.293Z,61.28
2023-06-08T09:36:31.536Z,61.35
2023-06-08T09:37:34.909Z,61.57
2023-06-08T09:38:37.535Z,62.99
2023-06-08T09:39:44.719Z,62.05
2023-06-08T09:40:48.126Z,61.68
2023-06-08T09:41:57.338Z,61.04
2023-06-08T09:42:59.471Z,60.28
2023-06-08T09:44:04.358Z,59.20
2023-06-08T09:45:14.638Z,57.84
2023-06-08T09:46:49.290Z,53.46
2023-06-08T09:47:51.649Z,54.99
2023-06-08T09:48:54.767Z,52.89
2023-06-08T09:49:57.128Z,51.56
2023-06-08T09:51:02.570Z,49.36
2023-06-08T09:52:07.584Z,48.89
2023-06-08T09:53:10.095Z,48.66
2023-06-08T09:54:12.893Z,48.09
2023-06-08T09:55:16.507Z,48.39
2023-06-08T09:56:18.888Z,49.61
2023-06-08T09:57:21.942Z,51.04
2023-06-08T09:58:26.498Z,49.63
2023-06-08T09:59:39.405Z,49.61
2023-06-08T10:00:41.888Z,49.39
2023-06-08T10:01:54.607Z,51.20
2023-06-08T10:03:17.677Z,50.75
2023-06-08T10:04:38.071Z,52.14
2023-06-08T10:05:46.662Z,53.43
2023-06-08T10:06:52.931Z,54.84
2023-06-08T10:07:56.792Z,55.19
2023-06-08T10:09:00.824Z,55.64
2023-06-08T10:10:08.901Z,56.95
2023-06-08T10:11:12.770Z,55.10
2023-06-08T10:12:15.027Z,56.20
2023-06-08T10:13:18.070Z,57.02
2023-06-08T10:14:20.404Z,57.75
2023-06-08T10:15:23.325Z,59.29
2023-06-08T10:16:26.419Z,59.39
2023-06-08T10:17:29.624Z,57.94
2023-06-08T10:18:32.218Z,55.16
2023-06-08T10:19:36.867Z,56.65
2023-06-08T10:20:39.069Z,57.17
2023-06-08T10:21:41.496Z,58.22
2023-06-08T10:22:44.617Z,58.14
2023-06-08T10:23:47.082Z,58.88
2023-06-08T10:25:10.829Z,59.28
2023-06-08T10:26:12.854Z,57.58
2023-06-08T10:27:23.858Z,59.50
2023-06-08T10:28:26.269Z,60.84
2023-06-08T10:29:29.448Z,57.58
2023-06-08T10:30:40.489Z,58.32
2023-06-08T10:31:43.967Z,56.75
2023-06-08T10:32:46.245Z,58.94
2023-06-08T10:33:48.484Z,57.43
2023-06-08T10:34:58.195Z,57.14
2023-06-08T10:36:11.426Z,59.04
2023-06-08T10:37:29.379Z,58.84
2023-06-08T10:38:35.012Z,60.83
2023-06-08T10:39:47.960Z,61.57
2023-06-08T10:40:52.378Z,62.87
2023-06-08T10:41:56.923Z,64.22
2023-06-08T10:43:15.011Z,66.54
2023-06-08T10:44:26.540Z,68.62
2023-06-08T10:45:34.740Z,68.61
2023-06-08T10:46:43.993Z,69.11
2023-06-08T10:47:47.325Z,70.08
2023-06-08T10:49:02.011Z,70.51
2023-06-08T10:50:06.374Z,70.06
2023-06-08T10:51:12.395Z,69.84
2023-06-08T10:52:24.233Z,69.39
2023-06-08T10:53:41.886Z,69.03
2023-06-08T10:54:53.431Z,67.72
2023-06-08T10:55:55.695Z,67.16
2023-06-08T10:57:16.153Z,66.35
2023-06-08T10:58:21.041Z,62.33
2023-06-08T10:59:36.713Z,62.85
2023-06-08T11:00:44.104Z,63.27
2023-06-08T11:01:48.012Z,66.30
2023-06-08T11:02:53.902Z,70.31
2023-06-08T11:03:58.652Z,70.80
2023-06-08T11:05:00.951Z,71.54
2023-06-08T11:06:13.978Z,73.44
2023-06-08T11:07:20.752Z,75.56
2023-06-08T11:08:23.456Z,75.95
2023-06-08T11:09:25.613Z,76.66
2023-06-08T11:10:29.073Z,77.70
2023-06-08T11:11:32.396Z,75.61
2023-06-08T11:12:34.622Z,75.64
2023-06-08T11:13:36.801Z,77.70
2023-06-08T11:14:38.905Z,77.72
2023-06-08T11:15:43.260Z,79.01
2023-06-08T11:16:52.155Z,76.62
2023-06-08T11:17:59.704Z,78.73
2023-06-08T11:19:01.996Z,78.90
2023-06-08T11:20:06.619Z,79.03
2023-06-08T11:21:08.809Z,79.63
2023-06-08T11:22:10.968Z,77.03
2023-06-08T11:23:14.565Z,78.16
2023-06-08T11:24:17.239Z,77.75
2023-06-08T11:25:22.241Z,75.10
2023-06-08T11:26:24.474Z,75.01
2023-06-08T11:27:26.615Z,72.04
2023-06-08T11:28:29.009Z,68.82
2023-06-08T11:29:31.506Z,65.09
2023-06-08T11:30:34.801Z,62.70
2023-06-08T11:31:43.997Z,67.79
2023-06-08T11:32:50.518Z,68.45
2023-06-08T11:33:52.891Z,68.66
2023-06-08T11:34:54.999Z,67.64
2023-06-08T11:35:57.154Z,69.16
2023-06-08T11:36:59.605Z,68.02
2023-06-08T11:38:02.802Z,67.36
2023-06-08T11:39:04.918Z,66.04
2023-06-08T11:40:12.159Z,67.64
2023-06-08T11:41:15.817Z,67.17
2023-06-08T11:42:18.394Z,67.04
2023-06-08T11:43:22.454Z,67.79
2023-06-08T11:44:27.095Z,68.25
2023-06-08T11:45:29.656Z,66.59
2023-06-08T11:46:32.234Z,66.26
2023-06-08T11:47:34.788Z,67.39
2023-06-08T11:48:37.041Z,63.87
2023-06-08T11:49:52.703Z,65.54
2023-06-08T11:50:54.859Z,64.58
2023-06-08T11:51:57.007Z,65.60
2023-06-08T11:53:02.520Z,64.27
2023-06-08T11:54:04.890Z,64.70
2023-06-08T11:55:17.627Z,60.77
2023-06-08T11:56:19.791Z,61.07
2023-06-08T11:57:22.579Z,60.42
2023-06-08T11:58:26.534Z,61.33
2023-06-08T11:59:28.876Z,60.21
2023-06-08T12:00:35.424Z,61.20
2023-06-08T12:01:38.706Z,61.03
2023-06-08T12:02:41.332Z,62.57
2023-06-08T12:03:47.745Z,61.54
2023-06-08T12:04:50.166Z,63.68
2023-06-08T12:05:58.413Z,62.87
2023-06-08T12:07:14.050Z,63.20
2023-06-08T12:08:16.860Z,61.26
2023-06-08T12:09:19.034Z,63.00
2023-06-08T12:10:21.259Z,60.47
2023-06-08T12:11:25.725Z,60.79
2023-06-08T12:12:30.231Z,59.60
2023-06-08T12:13:32.644Z,59.98
2023-06-08T12:14:45.114Z,59.28
2023-06-08T12:15:49.098Z,59.52
2023-06-08T12:16:51.428Z,59.48
2023-06-08T12:17:53.705Z,60.32
2023-06-08T12:18:57.390Z,61.24
2023-06-08T12:19:59.578Z,62.54
2023-06-08T12:21:04.670Z,62.12
2023-06-08T12:22:06.882Z,62.39
2023-06-08T12:23:09.211Z,62.54
2023-06-08T12:24:11.726Z,63.34
2023-06-08T12:25:14.129Z,62.91
2023-06-08T12:26:16.580Z,63.24
2023-06-08T12:27:18.979Z,62.75
2023-06-08T12:28:24.176Z,63.40
2023-06-08T12:29:26.357Z,63.33
2023-06-08T12:30:28.646Z,61.94
2023-06-08T12:31:30.973Z,63.71
2023-06-08T12:32:33.553Z,63.49
2023-06-08T12:33:36.073Z,62.42
2023-06-08T12:34:38.287Z,62.76
2023-06-08T12:35:41.728Z,63.91
2023-06-08T12:36:43.858Z,61.92
2023-06-08T12:37:50.201Z,60.72
2023-06-08T12:38:52.388Z,61.36
2023-06-08T12:39:54.819Z,60.86
2023-06-08T12:40:57.589Z,60.66
2023-06-08T12:42:00.407Z,61.01
2023-06-08T12:43:02.771Z,62.86
2023-06-08T12:44:05.065Z,61.44
2023-06-08T12:45:08.601Z,60.26
2023-06-08T12:46:12.069Z,61.25
2023-06-08T12:47:14.607Z,61.58
2023-06-08T12:48:20.638Z,61.59
2023-06-08T12:49:24.070Z,62.41
2023-06-08T12:50:30.420Z,62.49
2023-06-08T12:51:32.664Z,62.84
2023-06-08T12:52:35.223Z,63.05
2023-06-08T12:53:37.332Z,62.90
2023-06-08T12:54:39.439Z,62.58
2023-06-08T12:55:42.878Z,62.29
2023-06-08T12:56:45.614Z,61.95
2023-06-08T12:57:49.201Z,62.83
2023-06-08T12:58:52.287Z,63.19
2023-06-08T12:59:54.386Z,63.24
2023-06-08T13:00:56.617Z,63.32
2023-06-08T13:01:58.874Z,62.50
2023-06-08T13:03:01.374Z,62.21
2023-06-08T13:04:05.244Z,61.94
2023-06-08T13:05:08.073Z,60.85
2023-06-08T13:06:10.727Z,61.12
2023-06-08T13:07:12.890Z,61.60
2023-06-08T13:08:15.157Z,60.26
2023-06-08T13:09:17.351Z,60.69
2023-06-08T13:10:19.586Z,61.12
2023-06-08T13:11:21.829Z,61.03
2023-06-08T13:12:26.178Z,61.78
2023-06-08T13:13:28.889Z,60.73
2023-06-08T13:14:34.416Z,60.85
2023-06-08T13:15:37.694Z,60.50
2023-06-08T13:16:40.015Z,59.96
2023-06-08T13:17:42.426Z,60.88
2023-06-08T13:18:44.743Z,60.31
2023-06-08T13:19:46.988Z,60.51
2023-06-08T13:20:49.585Z,60.25
2023-06-08T13:21:52.712Z,60.31
2023-06-08T13:22:54.958Z,59.44
2023-06-08T13:24:59.326Z,59.52
2023-06-08T13:26:01.795Z,58.81
2023-06-08T13:27:04.221Z,59.12
2023-06-08T13:28:08.580Z,59.62
2023-06-08T13:29:10.763Z,58.68
2023-06-08T13:30:13.261Z,59.08
2023-06-08T13:31:15.740Z,56.43
2023-06-08T13:32:18.123Z,56.05
2023-06-08T13:33:20.774Z,56.83
2023-06-08T13:34:22.984Z,56.91
2023-06-08T13:35:25.194Z,57.06
2023-06-08T13:36:30.759Z,56.43
2023-06-08T13:37:33.292Z,54.31
2023-06-08T13:38:35.428Z,52.56
2023-06-08T13:39:37.653Z,50.35
2023-06-08T13:40:40.848Z,49.86
2023-06-08T13:41:43.599Z,47.75
2023-06-08T13:42:45.797Z,48.04
2023-06-08T13:43:48.112Z,47.63
2023-06-08T13:44:52.146Z,45.92
2023-06-08T13:45:59.592Z,45.31
2023-06-08T13:47:02.066Z,45.88
2023-06-08T13:48:04.700Z,46.01